sensor_id;sensor_type;location;lat;lon;timestamp;P1;durP1;ratioP1;P2;durP2;ratioP2
16416;SDS011;8317;52.186;5.688;2023-11-21T00:01:02;28.20;;;10.57;;
16416;SDS011;8317;52.186;5.688;2023-11-21T00:03:29;22.98;;;8.00;;
16416;SDS011;8317;52.186;5.688;2023-11-21T00:05:58;25.48;;;10.55;;
16416;SDS011;8317;52.186;5.688;2023-11-21T00:08:25;28.80;;;10.48;;
16416;SDS011;8317;52.186;5.688;2023-11-21T00:10:52;25.35;;;10.70;;
16416;SDS011;8317;52.186;5.688;2023-11-21T00:13:20;23.40;;;10.38;;
16416;SDS011;8317;52.186;5.688;2023-11-21T00:15:46;25.20;;;9.57;;
16416;SDS011;8317;52.186;5.688;2023-11-21T00:18:14;21.27;;;8.50;;
16416;SDS011;8317;52.186;5.688;2023-11-21T00:20:41;21.80;;;7.78;;
16416;SDS011;8317;52.186;5.688;2023-11-21T00:23:09;27.73;;;8.35;;
16416;SDS011;8317;52.186;5.688;2023-11-21T00:25:36;24.67;;;8.85;;
16416;SDS011;8317;52.186;5.688;2023-11-21T00:28:03;23.38;;;8.77;;
16416;SDS011;8317;52.186;5.688;2023-11-21T00:30:30;27.10;;;8.13;;
16416;SDS011;8317;52.186;5.688;2023-11-21T00:32:58;24.77;;;8.55;;
16416;SDS011;8317;52.186;5.688;2023-11-21T00:35:25;19.17;;;9.40;;
16416;SDS011;8317;52.186;5.688;2023-11-21T00:37:52;19.98;;;8.02;;
16416;SDS011;8317;52.186;5.688;2023-11-21T00:40:20;17.65;;;8.52;;
16416;SDS011;8317;52.186;5.688;2023-11-21T00:42:47;21.25;;;8.02;;
16416;SDS011;8317;52.186;5.688;2023-11-21T00:45:14;22.60;;;10.27;;
16416;SDS011;8317;52.186;5.688;2023-11-21T00:47:41;20.25;;;9.70;;
16416;SDS011;8317;52.186;5.688;2023-11-21T00:50:08;24.75;;;9.63;;
16416;SDS011;8317;52.186;5.688;2023-11-21T00:52:35;24.10;;;9.43;;
16416;SDS011;8317;52.186;5.688;2023-11-21T00:55:02;24.92;;;9.43;;
16416;SDS011;8317;52.186;5.688;2023-11-21T00:57:31;20.77;;;9.20;;
16416;SDS011;8317;52.186;5.688;2023-11-21T00:59:58;22.45;;;9.45;;
16416;SDS011;8317;52.186;5.688;2023-11-21T01:02:25;15.75;;;8.30;;
16416;SDS011;8317;52.186;5.688;2023-11-21T01:04:52;17.83;;;8.48;;
16416;SDS011;8317;52.186;5.688;2023-11-21T01:07:18;18.02;;;7.15;;
16416;SDS011;8317;52.186;5.688;2023-11-21T01:09:46;16.00;;;7.90;;
16416;SDS011;8317;52.186;5.688;2023-11-21T01:12:13;16.30;;;7.43;;
16416;SDS011;8317;52.186;5.688;2023-11-21T01:14:44;15.75;;;6.75;;
16416;SDS011;8317;52.186;5.688;2023-11-21T01:17:11;12.57;;;6.55;;
16416;SDS011;8317;52.186;5.688;2023-11-21T01:19:38;16.05;;;7.90;;
16416;SDS011;8317;52.186;5.688;2023-11-21T01:22:05;14.38;;;7.20;;
16416;SDS011;8317;52.186;5.688;2023-11-21T01:24:32;15.55;;;6.10;;
16416;SDS011;8317;52.186;5.688;2023-11-21T01:26:59;14.18;;;7.13;;
16416;SDS011;8317;52.186;5.688;2023-11-21T01:29:25;14.27;;;7.13;;
16416;SDS011;8317;52.186;5.688;2023-11-21T01:31:54;10.25;;;6.47;;
16416;SDS011;8317;52.186;5.688;2023-11-21T01:34:22;13.80;;;6.53;;
16416;SDS011;8317;52.186;5.688;2023-11-21T01:36:51;11.07;;;5.68;;
16416;SDS011;8317;52.186;5.688;2023-11-21T01:39:18;11.85;;;6.72;;
16416;SDS011;8317;52.186;5.688;2023-11-21T01:41:48;13.25;;;7.53;;
16416;SDS011;8317;52.186;5.688;2023-11-21T01:44:16;12.20;;;6.70;;
16416;SDS011;8317;52.186;5.688;2023-11-21T01:46:44;10.88;;;5.85;;
16416;SDS011;8317;52.186;5.688;2023-11-21T01:49:13;11.52;;;6.22;;
16416;SDS011;8317;52.186;5.688;2023-11-21T01:51:40;15.52;;;7.40;;
16416;SDS011;8317;52.186;5.688;2023-11-21T01:54:09;14.80;;;7.18;;
16416;SDS011;8317;52.186;5.688;2023-11-21T01:56:37;15.18;;;8.57;;
16416;SDS011;8317;52.186;5.688;2023-11-21T01:59:04;13.50;;;7.35;;
16416;SDS011;8317;52.186;5.688;2023-11-21T02:01:32;14.02;;;6.35;;
16416;SDS011;8317;52.186;5.688;2023-11-21T02:03:59;12.30;;;7.20;;
16416;SDS011;8317;52.186;5.688;2023-11-21T02:06:28;17.48;;;8.40;;
16416;SDS011;8317;52.186;5.688;2023-11-21T02:08:56;14.38;;;7.97;;
16416;SDS011;8317;52.186;5.688;2023-11-21T02:11:24;15.60;;;7.25;;
16416;SDS011;8317;52.186;5.688;2023-11-21T02:13:52;10.45;;;6.30;;
16416;SDS011;8317;52.186;5.688;2023-11-21T02:16:19;18.45;;;8.07;;
16416;SDS011;8317;52.186;5.688;2023-11-21T02:18:47;13.07;;;6.95;;
16416;SDS011;8317;52.186;5.688;2023-11-21T02:21:14;11.80;;;6.57;;
16416;SDS011;8317;52.186;5.688;2023-11-21T02:23:43;13.55;;;6.03;;
16416;SDS011;8317;52.186;5.688;2023-11-21T02:26:11;11.30;;;6.30;;
16416;SDS011;8317;52.186;5.688;2023-11-21T02:28:39;13.32;;;6.70;;
16416;SDS011;8317;52.186;5.688;2023-11-21T02:31:06;15.75;;;7.50;;
16416;SDS011;8317;52.186;5.688;2023-11-21T02:33:33;13.85;;;7.47;;
16416;SDS011;8317;52.186;5.688;2023-11-21T02:35:59;15.10;;;7.10;;
16416;SDS011;8317;52.186;5.688;2023-11-21T02:38:27;17.08;;;8.32;;
16416;SDS011;8317;52.186;5.688;2023-11-21T02:40:56;12.50;;;7.53;;
16416;SDS011;8317;52.186;5.688;2023-11-21T02:43:24;21.63;;;8.65;;
16416;SDS011;8317;52.186;5.688;2023-11-21T02:45:51;18.08;;;7.85;;
16416;SDS011;8317;52.186;5.688;2023-11-21T02:48:18;18.25;;;8.50;;
16416;SDS011;8317;52.186;5.688;2023-11-21T02:50:44;12.77;;;7.20;;
16416;SDS011;8317;52.186;5.688;2023-11-21T02:53:12;18.63;;;8.27;;
16416;SDS011;8317;52.186;5.688;2023-11-21T02:55:40;16.58;;;8.55;;
16416;SDS011;8317;52.186;5.688;2023-11-21T02:58:08;18.35;;;8.40;;
16416;SDS011;8317;52.186;5.688;2023-11-21T03:00:35;19.88;;;9.48;;
16416;SDS011;8317;52.186;5.688;2023-11-21T03:03:01;23.50;;;9.82;;
16416;SDS011;8317;52.186;5.688;2023-11-21T03:05:29;20.02;;;7.47;;
16416;SDS011;8317;52.186;5.688;2023-11-21T03:07:56;17.85;;;7.90;;
16416;SDS011;8317;52.186;5.688;2023-11-21T03:10:23;18.60;;;8.15;;
16416;SDS011;8317;52.186;5.688;2023-11-21T03:12:50;19.98;;;7.68;;
16416;SDS011;8317;52.186;5.688;2023-11-21T03:15:19;19.67;;;8.48;;
16416;SDS011;8317;52.186;5.688;2023-11-21T03:17:45;18.17;;;8.27;;
16416;SDS011;8317;52.186;5.688;2023-11-21T03:20:14;17.60;;;8.70;;
16416;SDS011;8317;52.186;5.688;2023-11-21T03:22:41;20.27;;;8.50;;
16416;SDS011;8317;52.186;5.688;2023-11-21T03:25:08;18.05;;;8.52;;
16416;SDS011;8317;52.186;5.688;2023-11-21T03:27:36;20.73;;;8.23;;
16416;SDS011;8317;52.186;5.688;2023-11-21T03:30:04;22.65;;;10.40;;
16416;SDS011;8317;52.186;5.688;2023-11-21T03:32:34;17.35;;;8.40;;
16416;SDS011;8317;52.186;5.688;2023-11-21T03:35:01;19.27;;;9.15;;
16416;SDS011;8317;52.186;5.688;2023-11-21T03:37:28;14.98;;;8.60;;
16416;SDS011;8317;52.186;5.688;2023-11-21T03:39:55;21.23;;;8.82;;
16416;SDS011;8317;52.186;5.688;2023-11-21T03:42:22;16.08;;;8.02;;
16416;SDS011;8317;52.186;5.688;2023-11-21T03:44:50;13.60;;;8.30;;
16416;SDS011;8317;52.186;5.688;2023-11-21T03:47:17;13.40;;;7.75;;
16416;SDS011;8317;52.186;5.688;2023-11-21T03:49:46;13.65;;;7.20;;
16416;SDS011;8317;52.186;5.688;2023-11-21T03:52:12;21.23;;;8.65;;
16416;SDS011;8317;52.186;5.688;2023-11-21T03:54:39;15.70;;;8.02;;
16416;SDS011;8317;52.186;5.688;2023-11-21T03:57:06;15.60;;;7.28;;
16416;SDS011;8317;52.186;5.688;2023-11-21T03:59:34;19.35;;;7.75;;
16416;SDS011;8317;52.186;5.688;2023-11-21T04:02:01;13.05;;;7.82;;
16416;SDS011;8317;52.186;5.688;2023-11-21T04:04:28;20.27;;;8.73;;
16416;SDS011;8317;52.186;5.688;2023-11-21T04:06:56;14.88;;;8.32;;
16416;SDS011;8317;52.186;5.688;2023-11-21T04:09:23;14.77;;;7.90;;
16416;SDS011;8317;52.186;5.688;2023-11-21T04:11:50;17.92;;;8.52;;
16416;SDS011;8317;52.186;5.688;2023-11-21T04:14:17;19.00;;;8.15;;
16416;SDS011;8317;52.186;5.688;2023-11-21T04:16:44;16.75;;;8.18;;
16416;SDS011;8317;52.186;5.688;2023-11-21T04:19:11;18.10;;;8.05;;
16416;SDS011;8317;52.186;5.688;2023-11-21T04:21:39;18.73;;;8.18;;
16416;SDS011;8317;52.186;5.688;2023-11-21T04:24:08;15.10;;;7.78;;
16416;SDS011;8317;52.186;5.688;2023-11-21T04:26:35;19.35;;;8.57;;
16416;SDS011;8317;52.186;5.688;2023-11-21T04:29:02;17.33;;;7.45;;
16416;SDS011;8317;52.186;5.688;2023-11-21T04:31:29;18.60;;;8.07;;
16416;SDS011;8317;52.186;5.688;2023-11-21T04:33:56;21.40;;;9.02;;
16416;SDS011;8317;52.186;5.688;2023-11-21T04:36:23;14.55;;;9.00;;
16416;SDS011;8317;52.186;5.688;2023-11-21T04:38:50;13.60;;;7.15;;
16416;SDS011;8317;52.186;5.688;2023-11-21T04:41:18;16.38;;;7.85;;
16416;SDS011;8317;52.186;5.688;2023-11-21T04:43:45;14.18;;;7.60;;
16416;SDS011;8317;52.186;5.688;2023-11-21T04:46:12;20.63;;;8.50;;
16416;SDS011;8317;52.186;5.688;2023-11-21T04:48:39;14.00;;;6.68;;
16416;SDS011;8317;52.186;5.688;2023-11-21T04:51:06;10.65;;;6.50;;
16416;SDS011;8317;52.186;5.688;2023-11-21T04:53:33;10.07;;;7.05;;
16416;SDS011;8317;52.186;5.688;2023-11-21T04:56:01;14.35;;;7.40;;
16416;SDS011;8317;52.186;5.688;2023-11-21T04:58:31;10.30;;;6.80;;
16416;SDS011;8317;52.186;5.688;2023-11-21T05:00:58;13.77;;;7.68;;
16416;SDS011;8317;52.186;5.688;2023-11-21T05:03:25;14.45;;;6.82;;
16416;SDS011;8317;52.186;5.688;2023-11-21T05:05:54;16.40;;;7.35;;
16416;SDS011;8317;52.186;5.688;2023-11-21T05:08:22;19.25;;;7.85;;
16416;SDS011;8317;52.186;5.688;2023-11-21T05:10:48;14.63;;;6.97;;
16416;SDS011;8317;52.186;5.688;2023-11-21T05:13:16;13.82;;;7.50;;
16416;SDS011;8317;52.186;5.688;2023-11-21T05:15:45;14.90;;;6.68;;
16416;SDS011;8317;52.186;5.688;2023-11-21T05:18:12;13.65;;;6.47;;
16416;SDS011;8317;52.186;5.688;2023-11-21T05:20:39;12.30;;;6.95;;
16416;SDS011;8317;52.186;5.688;2023-11-21T05:23:07;17.13;;;7.55;;
16416;SDS011;8317;52.186;5.688;2023-11-21T05:25:34;19.50;;;7.28;;
16416;SDS011;8317;52.186;5.688;2023-11-21T05:28:01;14.15;;;7.15;;
16416;SDS011;8317;52.186;5.688;2023-11-21T05:30:29;14.15;;;6.75;;
16416;SDS011;8317;52.186;5.688;2023-11-21T05:32:57;12.93;;;6.30;;
16416;SDS011;8317;52.186;5.688;2023-11-21T05:35:24;14.43;;;6.70;;
16416;SDS011;8317;52.186;5.688;2023-11-21T05:37:51;17.05;;;7.22;;
16416;SDS011;8317;52.186;5.688;2023-11-21T05:40:19;11.95;;;6.35;;
16416;SDS011;8317;52.186;5.688;2023-11-21T05:42:47;20.48;;;7.55;;
16416;SDS011;8317;52.186;5.688;2023-11-21T05:45:17;11.25;;;6.05;;
16416;SDS011;8317;52.186;5.688;2023-11-21T05:47:44;23.98;;;7.13;;
16416;SDS011;8317;52.186;5.688;2023-11-21T05:50:14;15.80;;;7.88;;
16416;SDS011;8317;52.186;5.688;2023-11-21T05:52:42;14.65;;;7.43;;
16416;SDS011;8317;52.186;5.688;2023-11-21T05:55:10;14.43;;;7.53;;
16416;SDS011;8317;52.186;5.688;2023-11-21T05:57:38;18.83;;;8.25;;
16416;SDS011;8317;52.186;5.688;2023-11-21T06:00:06;18.98;;;7.32;;
16416;SDS011;8317;52.186;5.688;2023-11-21T06:02:43;15.77;;;7.63;;
16416;SDS011;8317;52.186;5.688;2023-11-21T06:05:11;17.02;;;7.40;;
16416;SDS011;8317;52.186;5.688;2023-11-21T06:07:39;11.35;;;7.03;;
16416;SDS011;8317;52.186;5.688;2023-11-21T06:10:07;15.07;;;6.97;;
16416;SDS011;8317;52.186;5.688;2023-11-21T06:12:35;13.05;;;6.65;;
16416;SDS011;8317;52.186;5.688;2023-11-21T06:15:02;16.52;;;7.20;;
16416;SDS011;8317;52.186;5.688;2023-11-21T06:17:30;16.73;;;7.25;;
16416;SDS011;8317;52.186;5.688;2023-11-21T06:19:57;23.42;;;7.97;;
16416;SDS011;8317;52.186;5.688;2023-11-21T06:22:25;19.70;;;8.13;;
16416;SDS011;8317;52.186;5.688;2023-11-21T06:24:54;16.17;;;7.63;;
16416;SDS011;8317;52.186;5.688;2023-11-21T06:27:21;25.63;;;7.72;;
16416;SDS011;8317;52.186;5.688;2023-11-21T06:29:49;13.88;;;6.60;;
16416;SDS011;8317;52.186;5.688;2023-11-21T06:32:17;21.27;;;8.88;;
16416;SDS011;8317;52.186;5.688;2023-11-21T06:34:45;24.60;;;7.85;;
16416;SDS011;8317;52.186;5.688;2023-11-21T06:37:12;16.38;;;7.22;;
16416;SDS011;8317;52.186;5.688;2023-11-21T06:39:39;18.70;;;8.55;;
16416;SDS011;8317;52.186;5.688;2023-11-21T06:42:07;20.33;;;8.88;;
16416;SDS011;8317;52.186;5.688;2023-11-21T06:44:35;23.15;;;8.98;;
16416;SDS011;8317;52.186;5.688;2023-11-21T06:47:03;21.67;;;9.10;;
16416;SDS011;8317;52.186;5.688;2023-11-21T06:49:30;23.95;;;9.05;;
16416;SDS011;8317;52.186;5.688;2023-11-21T06:51:57;20.75;;;8.35;;
16416;SDS011;8317;52.186;5.688;2023-11-21T06:54:24;19.90;;;8.20;;
16416;SDS011;8317;52.186;5.688;2023-11-21T06:56:51;16.55;;;7.95;;
16416;SDS011;8317;52.186;5.688;2023-11-21T06:59:19;16.67;;;8.02;;
16416;SDS011;8317;52.186;5.688;2023-11-21T07:01:46;16.30;;;7.22;;
16416;SDS011;8317;52.186;5.688;2023-11-21T07:04:14;16.23;;;7.88;;
16416;SDS011;8317;52.186;5.688;2023-11-21T07:06:41;18.65;;;7.70;;
16416;SDS011;8317;52.186;5.688;2023-11-21T07:09:08;13.38;;;6.93;;
16416;SDS011;8317;52.186;5.688;2023-11-21T07:11:36;16.67;;;9.15;;
16416;SDS011;8317;52.186;5.688;2023-11-21T07:14:04;15.50;;;8.30;;
16416;SDS011;8317;52.186;5.688;2023-11-21T07:16:33;19.92;;;8.70;;
16416;SDS011;8317;52.186;5.688;2023-11-21T07:19:02;21.27;;;8.63;;
16416;SDS011;8317;52.186;5.688;2023-11-21T07:21:31;17.25;;;9.13;;
16416;SDS011;8317;52.186;5.688;2023-11-21T07:23:58;22.90;;;10.25;;
16416;SDS011;8317;52.186;5.688;2023-11-21T07:26:25;19.15;;;9.13;;
16416;SDS011;8317;52.186;5.688;2023-11-21T07:28:51;15.13;;;7.93;;
16416;SDS011;8317;52.186;5.688;2023-11-21T07:31:18;17.75;;;8.95;;
16416;SDS011;8317;52.186;5.688;2023-11-21T07:33:47;18.33;;;8.63;;
16416;SDS011;8317;52.186;5.688;2023-11-21T07:36:14;16.67;;;8.52;;
16416;SDS011;8317;52.186;5.688;2023-11-21T07:38:43;15.10;;;8.93;;
16416;SDS011;8317;52.186;5.688;2023-11-21T07:41:10;24.48;;;10.35;;
16416;SDS011;8317;52.186;5.688;2023-11-21T07:43:40;22.17;;;12.32;;
16416;SDS011;8317;52.186;5.688;2023-11-21T07:46:08;16.52;;;9.05;;
16416;SDS011;8317;52.186;5.688;2023-11-21T07:48:35;15.82;;;8.40;;
16416;SDS011;8317;52.186;5.688;2023-11-21T07:51:03;15.63;;;7.85;;
16416;SDS011;8317;52.186;5.688;2023-11-21T07:53:30;13.60;;;8.23;;
16416;SDS011;8317;52.186;5.688;2023-11-21T07:55:57;21.20;;;10.18;;
16416;SDS011;8317;52.186;5.688;2023-11-21T07:58:25;19.75;;;10.43;;
16416;SDS011;8317;52.186;5.688;2023-11-21T08:00:51;15.40;;;8.15;;
16416;SDS011;8317;52.186;5.688;2023-11-21T08:03:18;17.73;;;9.23;;
16416;SDS011;8317;52.186;5.688;2023-11-21T08:05:46;16.92;;;9.57;;
16416;SDS011;8317;52.186;5.688;2023-11-21T08:08:14;15.63;;;8.05;;
16416;SDS011;8317;52.186;5.688;2023-11-21T08:10:43;15.68;;;8.25;;
16416;SDS011;8317;52.186;5.688;2023-11-21T08:13:13;19.08;;;9.55;;
16416;SDS011;8317;52.186;5.688;2023-11-21T08:15:42;23.63;;;9.88;;
16416;SDS011;8317;52.186;5.688;2023-11-21T08:18:11;18.15;;;8.88;;
16416;SDS011;8317;52.186;5.688;2023-11-21T08:20:39;20.73;;;9.48;;
16416;SDS011;8317;52.186;5.688;2023-11-21T08:23:06;21.25;;;9.40;;
16416;SDS011;8317;52.186;5.688;2023-11-21T08:25:35;23.42;;;9.80;;
16416;SDS011;8317;52.186;5.688;2023-11-21T08:28:02;21.73;;;9.73;;
16416;SDS011;8317;52.186;5.688;2023-11-21T08:30:29;30.48;;;9.60;;
16416;SDS011;8317;52.186;5.688;2023-11-21T08:32:57;20.92;;;9.48;;
16416;SDS011;8317;52.186;5.688;2023-11-21T08:35:24;24.88;;;10.05;;
16416;SDS011;8317;52.186;5.688;2023-11-21T08:37:51;23.92;;;8.88;;
16416;SDS011;8317;52.186;5.688;2023-11-21T08:40:18;24.65;;;9.80;;
16416;SDS011;8317;52.186;5.688;2023-11-21T08:42:47;30.20;;;11.27;;
16416;SDS011;8317;52.186;5.688;2023-11-21T08:45:16;19.20;;;9.60;;
16416;SDS011;8317;52.186;5.688;2023-11-21T08:47:43;20.20;;;9.50;;
16416;SDS011;8317;52.186;5.688;2023-11-21T08:50:11;22.05;;;9.73;;
16416;SDS011;8317;52.186;5.688;2023-11-21T08:52:38;22.35;;;9.70;;
16416;SDS011;8317;52.186;5.688;2023-11-21T08:55:05;23.10;;;10.45;;
16416;SDS011;8317;52.186;5.688;2023-11-21T08:57:33;28.70;;;11.02;;
16416;SDS011;8317;52.186;5.688;2023-11-21T09:00:03;27.38;;;12.07;;
16416;SDS011;8317;52.186;5.688;2023-11-21T09:02:32;21.65;;;10.45;;
16416;SDS011;8317;52.186;5.688;2023-11-21T09:05:00;25.10;;;11.52;;
16416;SDS011;8317;52.186;5.688;2023-11-21T09:07:28;25.30;;;9.80;;
16416;SDS011;8317;52.186;5.688;2023-11-21T09:09:55;27.10;;;9.88;;
16416;SDS011;8317;52.186;5.688;2023-11-21T09:12:22;19.75;;;8.98;;
16416;SDS011;8317;52.186;5.688;2023-11-21T09:14:49;19.90;;;8.45;;
16416;SDS011;8317;52.186;5.688;2023-11-21T09:17:18;21.08;;;9.32;;
16416;SDS011;8317;52.186;5.688;2023-11-21T09:19:45;28.02;;;10.23;;
16416;SDS011;8317;52.186;5.688;2023-11-21T09:22:16;24.77;;;9.52;;
16416;SDS011;8317;52.186;5.688;2023-11-21T09:24:43;23.15;;;9.57;;
16416;SDS011;8317;52.186;5.688;2023-11-21T09:27:10;17.77;;;9.30;;
16416;SDS011;8317;52.186;5.688;2023-11-21T09:29:37;19.98;;;8.82;;
16416;SDS011;8317;52.186;5.688;2023-11-21T09:32:04;21.50;;;10.65;;
16416;SDS011;8317;52.186;5.688;2023-11-21T09:34:34;27.17;;;11.05;;
16416;SDS011;8317;52.186;5.688;2023-11-21T09:37:03;18.67;;;9.55;;
16416;SDS011;8317;52.186;5.688;2023-11-21T09:39:31;19.88;;;9.23;;
16416;SDS011;8317;52.186;5.688;2023-11-21T09:42:00;15.82;;;8.73;;
16416;SDS011;8317;52.186;5.688;2023-11-21T09:44:32;24.73;;;9.07;;
16416;SDS011;8317;52.186;5.688;2023-11-21T09:47:02;21.33;;;8.23;;
16416;SDS011;8317;52.186;5.688;2023-11-21T09:49:34;16.70;;;8.10;;
16416;SDS011;8317;52.186;5.688;2023-11-21T09:52:03;15.88;;;8.68;;
16416;SDS011;8317;52.186;5.688;2023-11-21T09:54:32;16.10;;;7.72;;
16416;SDS011;8317;52.186;5.688;2023-11-21T09:57:01;18.98;;;8.27;;
16416;SDS011;8317;52.186;5.688;2023-11-21T09:59:30;20.63;;;9.13;;
16416;SDS011;8317;52.186;5.688;2023-11-21T10:01:58;24.33;;;11.10;;
16416;SDS011;8317;52.186;5.688;2023-11-21T10:04:25;18.15;;;7.95;;
16416;SDS011;8317;52.186;5.688;2023-11-21T10:06:53;18.13;;;7.28;;
16416;SDS011;8317;52.186;5.688;2023-11-21T10:09:20;16.30;;;7.75;;
16416;SDS011;8317;52.186;5.688;2023-11-21T10:11:49;18.67;;;7.45;;
16416;SDS011;8317;52.186;5.688;2023-11-21T10:14:17;20.73;;;7.75;;
16416;SDS011;8317;52.186;5.688;2023-11-21T10:16:50;15.52;;;7.07;;
16416;SDS011;8317;52.186;5.688;2023-11-21T10:19:18;12.90;;;6.75;;
16416;SDS011;8317;52.186;5.688;2023-11-21T10:21:47;17.80;;;7.60;;
16416;SDS011;8317;52.186;5.688;2023-11-21T10:24:15;16.45;;;6.47;;
16416;SDS011;8317;52.186;5.688;2023-11-21T10:26:43;14.60;;;7.35;;
16416;SDS011;8317;52.186;5.688;2023-11-21T10:29:13;17.30;;;8.10;;
16416;SDS011;8317;52.186;5.688;2023-11-21T10:31:41;20.08;;;7.45;;
16416;SDS011;8317;52.186;5.688;2023-11-21T10:34:13;19.65;;;6.82;;
16416;SDS011;8317;52.186;5.688;2023-11-21T10:36:40;17.08;;;7.00;;
16416;SDS011;8317;52.186;5.688;2023-11-21T10:39:07;18.80;;;6.93;;
16416;SDS011;8317;52.186;5.688;2023-11-21T10:41:37;15.70;;;7.38;;
16416;SDS011;8317;52.186;5.688;2023-11-21T10:44:05;16.58;;;6.88;;
16416;SDS011;8317;52.186;5.688;2023-11-21T10:46:34;15.40;;;4.95;;
16416;SDS011;8317;52.186;5.688;2023-11-21T10:49:01;15.20;;;5.90;;
16416;SDS011;8317;52.186;5.688;2023-11-21T10:51:28;9.30;;;5.20;;
16416;SDS011;8317;52.186;5.688;2023-11-21T10:53:55;14.02;;;5.57;;
16416;SDS011;8317;52.186;5.688;2023-11-21T10:56:23;11.68;;;4.60;;
16416;SDS011;8317;52.186;5.688;2023-11-21T10:58:53;15.02;;;5.50;;
16416;SDS011;8317;52.186;5.688;2023-11-21T11:01:20;13.13;;;5.47;;
16416;SDS011;8317;52.186;5.688;2023-11-21T11:03:49;11.35;;;4.88;;
16416;SDS011;8317;52.186;5.688;2023-11-21T11:06:19;14.82;;;5.38;;
16416;SDS011;8317;52.186;5.688;2023-11-21T11:08:47;14.40;;;6.10;;
16416;SDS011;8317;52.186;5.688;2023-11-21T11:11:15;16.33;;;5.93;;
16416;SDS011;8317;52.186;5.688;2023-11-21T11:13:43;13.60;;;6.10;;
16416;SDS011;8317;52.186;5.688;2023-11-21T11:16:13;11.23;;;4.95;;
16416;SDS011;8317;52.186;5.688;2023-11-21T11:18:42;18.10;;;5.97;;
16416;SDS011;8317;52.186;5.688;2023-11-21T11:21:11;13.65;;;6.00;;
16416;SDS011;8317;52.186;5.688;2023-11-21T11:24:05;13.52;;;6.20;;
16416;SDS011;8317;52.186;5.688;2023-11-21T11:26:43;19.13;;;6.70;;
16416;SDS011;8317;52.186;5.688;2023-11-21T11:29:18;12.70;;;5.88;;
16416;SDS011;8317;52.186;5.688;2023-11-21T11:32:01;12.52;;;5.15;;
16416;SDS011;8317;52.186;5.688;2023-11-21T11:34:36;15.00;;;6.15;;
16416;SDS011;8317;52.186;5.688;2023-11-21T11:37:08;10.73;;;5.28;;
16416;SDS011;8317;52.186;5.688;2023-11-21T11:39:36;11.13;;;4.75;;
16416;SDS011;8317;52.186;5.688;2023-11-21T11:42:05;11.85;;;4.70;;
16416;SDS011;8317;52.186;5.688;2023-11-21T11:44:46;14.73;;;5.68;;
16416;SDS011;8317;52.186;5.688;2023-11-21T11:47:24;11.38;;;5.38;;
16416;SDS011;8317;52.186;5.688;2023-11-21T11:52:42;13.10;;;5.72;;
16416;SDS011;8317;52.186;5.688;2023-11-21T11:55:10;11.57;;;5.50;;
16416;SDS011;8317;52.186;5.688;2023-11-21T11:57:39;15.02;;;5.35;;
16416;SDS011;8317;52.186;5.688;2023-11-21T12:00:13;11.63;;;6.38;;
16416;SDS011;8317;52.186;5.688;2023-11-21T12:02:45;14.23;;;6.40;;
16416;SDS011;8317;52.186;5.688;2023-11-21T12:05:13;14.38;;;6.45;;
16416;SDS011;8317;52.186;5.688;2023-11-21T12:07:43;13.65;;;5.93;;
16416;SDS011;8317;52.186;5.688;2023-11-21T12:10:14;14.85;;;5.43;;
16416;SDS011;8317;52.186;5.688;2023-11-21T12:12:43;14.75;;;7.82;;
16416;SDS011;8317;52.186;5.688;2023-11-21T12:15:14;16.48;;;6.78;;
16416;SDS011;8317;52.186;5.688;2023-11-21T12:17:42;21.50;;;7.70;;
16416;SDS011;8317;52.186;5.688;2023-11-21T12:20:11;17.45;;;8.07;;
16416;SDS011;8317;52.186;5.688;2023-11-21T12:22:43;16.10;;;7.47;;
16416;SDS011;8317;52.186;5.688;2023-11-21T12:25:12;16.27;;;7.30;;
16416;SDS011;8317;52.186;5.688;2023-11-21T12:27:41;13.02;;;6.38;;
16416;SDS011;8317;52.186;5.688;2023-11-21T12:30:10;17.45;;;8.35;;
16416;SDS011;8317;52.186;5.688;2023-11-21T12:32:40;16.20;;;7.82;;
16416;SDS011;8317;52.186;5.688;2023-11-21T12:35:08;15.15;;;6.57;;
16416;SDS011;8317;52.186;5.688;2023-11-21T12:37:37;14.25;;;6.75;;
16416;SDS011;8317;52.186;5.688;2023-11-21T12:40:05;15.82;;;7.82;;
16416;SDS011;8317;52.186;5.688;2023-11-21T12:42:36;20.10;;;8.65;;
16416;SDS011;8317;52.186;5.688;2023-11-21T12:45:10;16.83;;;7.72;;
16416;SDS011;8317;52.186;5.688;2023-11-21T12:47:45;16.95;;;6.78;;
16416;SDS011;8317;52.186;5.688;2023-11-21T12:50:14;19.80;;;7.40;;
16416;SDS011;8317;52.186;5.688;2023-11-21T12:52:43;15.32;;;6.97;;
16416;SDS011;8317;52.186;5.688;2023-11-21T12:55:15;15.90;;;7.63;;
16416;SDS011;8317;52.186;5.688;2023-11-21T12:57:43;14.52;;;6.85;;
16416;SDS011;8317;52.186;5.688;2023-11-21T13:00:12;13.27;;;7.38;;
16416;SDS011;8317;52.186;5.688;2023-11-21T13:02:51;17.95;;;6.93;;
16416;SDS011;8317;52.186;5.688;2023-11-21T13:05:26;13.98;;;6.57;;
16416;SDS011;8317;52.186;5.688;2023-11-21T13:07:55;14.63;;;6.88;;
16416;SDS011;8317;52.186;5.688;2023-11-21T13:10:24;13.10;;;5.45;;
16416;SDS011;8317;52.186;5.688;2023-11-21T13:12:54;8.73;;;4.20;;
16416;SDS011;8317;52.186;5.688;2023-11-21T13:15:23;7.85;;;3.20;;
16416;SDS011;8317;52.186;5.688;2023-11-21T13:17:50;5.85;;;3.22;;
16416;SDS011;8317;52.186;5.688;2023-11-21T13:20:18;5.38;;;2.65;;
16416;SDS011;8317;52.186;5.688;2023-11-21T13:22:46;7.20;;;3.40;;
16416;SDS011;8317;52.186;5.688;2023-11-21T13:25:16;6.28;;;3.15;;
16416;SDS011;8317;52.186;5.688;2023-11-21T13:27:44;5.60;;;3.20;;
16416;SDS011;8317;52.186;5.688;2023-11-21T13:30:12;6.25;;;3.60;;
16416;SDS011;8317;52.186;5.688;2023-11-21T13:32:42;6.15;;;3.50;;
16416;SDS011;8317;52.186;5.688;2023-11-21T13:35:10;7.00;;;2.90;;
16416;SDS011;8317;52.186;5.688;2023-11-21T13:37:46;6.28;;;3.72;;
16416;SDS011;8317;52.186;5.688;2023-11-21T13:40:21;8.13;;;3.10;;
16416;SDS011;8317;52.186;5.688;2023-11-21T13:42:51;8.18;;;4.32;;
16416;SDS011;8317;52.186;5.688;2023-11-21T13:45:20;8.88;;;3.53;;
16416;SDS011;8317;52.186;5.688;2023-11-21T13:47:48;10.32;;;4.13;;
16416;SDS011;8317;52.186;5.688;2023-11-21T13:50:17;11.60;;;4.30;;
16416;SDS011;8317;52.186;5.688;2023-11-21T13:52:48;7.82;;;4.25;;
16416;SDS011;8317;52.186;5.688;2023-11-21T13:55:16;11.75;;;4.30;;
16416;SDS011;8317;52.186;5.688;2023-11-21T13:57:44;8.40;;;4.88;;
16416;SDS011;8317;52.186;5.688;2023-11-21T14:00:14;13.52;;;5.45;;
16416;SDS011;8317;52.186;5.688;2023-11-21T14:03:06;28.15;;;11.80;;
16416;SDS011;8317;52.186;5.688;2023-11-21T14:05:41;12.82;;;5.63;;
16416;SDS011;8317;52.186;5.688;2023-11-21T14:08:09;14.52;;;6.70;;
16416;SDS011;8317;52.186;5.688;2023-11-21T14:10:39;21.60;;;6.93;;
16416;SDS011;8317;52.186;5.688;2023-11-21T14:13:09;16.60;;;5.93;;
16416;SDS011;8317;52.186;5.688;2023-11-21T14:15:38;18.02;;;5.72;;
16416;SDS011;8317;52.186;5.688;2023-11-21T14:18:08;15.45;;;6.65;;
16416;SDS011;8317;52.186;5.688;2023-11-21T14:20:37;12.75;;;6.13;;
16416;SDS011;8317;52.186;5.688;2023-11-21T14:23:05;18.13;;;8.02;;
16416;SDS011;8317;52.186;5.688;2023-11-21T14:25:32;15.25;;;6.72;;
16416;SDS011;8317;52.186;5.688;2023-11-21T14:28:01;15.38;;;7.13;;
16416;SDS011;8317;52.186;5.688;2023-11-21T14:30:32;22.48;;;7.90;;
16416;SDS011;8317;52.186;5.688;2023-11-21T14:33:01;14.80;;;6.93;;
16416;SDS011;8317;52.186;5.688;2023-11-21T14:35:28;15.70;;;8.02;;
16416;SDS011;8317;52.186;5.688;2023-11-21T14:37:57;13.60;;;6.80;;
16416;SDS011;8317;52.186;5.688;2023-11-21T14:40:25;18.92;;;8.43;;
16416;SDS011;8317;52.186;5.688;2023-11-21T14:42:58;15.88;;;7.72;;
16416;SDS011;8317;52.186;5.688;2023-11-21T14:45:25;16.67;;;7.85;;
16416;SDS011;8317;52.186;5.688;2023-11-21T14:47:55;15.52;;;8.98;;
16416;SDS011;8317;52.186;5.688;2023-11-21T14:50:31;22.60;;;7.82;;
16416;SDS011;8317;52.186;5.688;2023-11-21T14:53:14;14.82;;;7.32;;
16416;SDS011;8317;52.186;5.688;2023-11-21T14:55:39;15.63;;;7.07;;
16416;SDS011;8317;52.186;5.688;2023-11-21T14:58:19;14.07;;;7.47;;